Time;durP1;ratioP1;P1;durP2;ratioP2;P2;SDS_P1;SDS_P2;PMS_P1;PMS_P2;Temp;Humidity;BMP_temperature;BMP_pressure;BME280_temperature;BME280_humidity;BME280_pressure;Samples;Min_cycle;Max_cycle;Signal;HPM_P1;HPM_P2
2024/02/12 00:00:18;;;;;;;42.17;25.20;;;8.00;99.90;;;;;;5067637;28;20040;-62
2024/02/12 00:02:47;;;;;;;43.08;25.48;;;8.10;99.90;;;;;;5072742;28;20051;-62
2024/02/12 00:05:13;;;;;;;42.35;24.30;;;8.10;99.90;;;;;;5078155;28;20435;-62
2024/02/12 00:07:40;;;;;;;38.58;24.63;;;8.00;99.90;;;;;;5096637;28;20104;-62
2024/02/12 00:10:11;;;;;;;39.28;23.38;;;8.10;99.90;;;;;;5075099;28;20043;-62
2024/02/12 00:12:38;;;;;;;42.05;23.67;;;8.10;99.90;;;;;;5074216;28;20048;-62
2024/02/12 00:15:07;;;;;;;42.42;25.00;;;8.10;99.90;;;;;;5071223;28;20043;-62
2024/02/12 00:17:35;;;;;;;41.63;24.45;;;8.10;99.90;;;;;;5068874;28;20115;-62
2024/02/12 00:20:06;;;;;;;45.45;24.25;;;8.10;99.90;;;;;;5093602;28;20035;-62
2024/02/12 00:22:35;;;;;;;38.10;22.40;;;8.00;99.90;;;;;;5108718;28;20115;-62
2024/02/12 00:25:04;;;;;;;37.70;24.10;;;8.10;99.90;;;;;;5090238;28;20069;-62
2024/02/12 00:27:34;;;;;;;37.83;24.33;;;8.00;99.90;;;;;;5094380;28;20039;-62
2024/02/12 00:30:00;;;;;;;40.67;23.88;;;8.00;99.90;;;;;;5062433;28;20041;-62
2024/02/12 00:32:26;;;;;;;47.47;24.00;;;8.00;99.90;;;;;;5106304;28;20371;-62
2024/02/12 00:34:54;;;;;;;41.33;22.27;;;8.00;99.90;;;;;;5075779;28;20047;-62
2024/02/12 00:37:20;;;;;;;44.22;22.30;;;7.90;99.90;;;;;;5073849;28;20051;-62
2024/02/12 00:39:45;;;;;;;40.53;21.88;;;7.90;99.90;;;;;;5096798;28;20032;-62
2024/02/12 00:42:12;;;;;;;40.90;22.70;;;7.90;99.90;;;;;;5077531;28;20640;-62
2024/02/12 00:44:42;;;;;;;36.58;21.35;;;7.90;99.90;;;;;;5077960;28;20043;-62
2024/02/12 00:47:08;;;;;;;34.10;21.65;;;7.80;99.90;;;;;;5098649;28;20043;-62
2024/02/12 00:49:34;;;;;;;33.13;21.08;;;7.80;99.90;;;;;;5075498;28;20044;-62
2024/02/12 00:52:02;;;;;;;33.70;20.40;;;7.80;99.90;;;;;;5094393;28;20146;-62
2024/02/12 00:54:29;;;;;;;41.33;22.38;;;7.80;99.90;;;;;;5078060;28;20402;-62
2024/02/12 00:56:57;;;;;;;36.47;21.98;;;7.80;99.90;;;;;;5097912;28;20402;-62
2024/02/12 00:59:24;;;;;;;35.47;21.58;;;7.80;99.90;;;;;;5078176;28;20048;-62
2024/02/12 01:01:50;;;;;;;37.78;21.65;;;7.80;99.90;;;;;;5100178;28;20683;-62
2024/02/12 01:04:15;;;;;;;34.13;20.73;;;7.80;99.90;;;;;;5075064;28;20040;-62
2024/02/12 01:06:43;;;;;;;34.63;21.25;;;7.80;99.90;;;;;;5074949;28;20036;-62
2024/02/12 01:09:12;;;;;;;33.50;22.02;;;7.80;99.90;;;;;;5074601;28;20490;-62
2024/02/12 01:11:38;;;;;;;33.03;20.00;;;7.80;99.90;;;;;;5098147;28;20031;-62
2024/02/12 01:14:04;;;;;;;35.58;21.65;;;7.80;99.90;;;;;;5112501;27;20040;-61
2024/02/12 01:16:34;;;;;;;33.90;21.25;;;7.80;99.90;;;;;;5089022;28;20044;-62
2024/02/12 01:19:00;;;;;;;33.45;19.98;;;7.80;99.90;;;;;;5077065;28;20047;-62
2024/02/12 01:21:26;;;;;;;32.00;19.13;;;7.80;99.90;;;;;;5115675;27;20093;-62
2024/02/12 01:23:52;;;;;;;29.35;17.73;;;7.90;99.90;;;;;;5094954;28;20047;-62
2024/02/12 01:26:18;;;;;;;31.73;19.23;;;7.80;99.90;;;;;;5096510;28;20036;-62
2024/02/12 01:28:44;;;;;;;30.63;18.05;;;7.80;99.90;;;;;;5096562;28;20062;-62
2024/02/12 01:31:18;;;;;;;25.98;17.67;;;7.80;99.90;;;;;;5077674;28;20044;-62
2024/02/12 01:33:47;;;;;;;32.45;17.17;;;7.80;99.90;;;;;;5079040;28;20036;-62
2024/02/12 01:36:13;;;;;;;33.70;18.75;;;7.80;99.90;;;;;;5081219;28;20205;-62
2024/02/12 01:38:41;;;;;;;29.55;18.17;;;7.80;99.90;;;;;;5087906;28;20562;-62
2024/02/12 01:41:06;;;;;;;29.85;18.02;;;7.80;99.90;;;;;;5077378;28;20031;-62
2024/02/12 01:43:36;;;;;;;33.25;18.25;;;7.80;99.90;;;;;;5095884;28;20504;-62
2024/02/12 01:46:05;;;;;;;26.25;17.70;;;7.80;99.90;;;;;;5104081;27;20137;-62
2024/02/12 01:48:32;;;;;;;28.58;18.52;;;7.80;99.90;;;;;;5076101;28;20072;-62
2024/02/12 01:51:00;;;;;;;26.52;16.98;;;7.90;99.90;;;;;;5077058;28;20059;-62
2024/02/12 01:53:26;;;;;;;28.70;18.70;;;7.90;99.90;;;;;;5079680;28;20586;-62
2024/02/12 01:55:52;;;;;;;29.33;17.05;;;7.80;99.90;;;;;;5074215;28;20051;-62
2024/02/12 01:58:18;;;;;;;30.40;18.77;;;7.80;99.90;;;;;;5077807;28;20620;-62
2024/02/12 02:00:48;;;;;;;32.40;17.98;;;7.90;99.90;;;;;;5073293;28;20036;-62
2024/02/12 02:03:17;;;;;;;29.13;17.50;;;7.80;99.90;;;;;;5077492;28;20113;-62
2024/02/12 02:05:45;;;;;;;27.38;18.02;;;7.80;99.90;;;;;;5091992;28;20032;-62
2024/02/12 02:08:13;;;;;;;32.95;18.75;;;7.80;99.90;;;;;;5110247;27;20042;-62
2024/02/12 02:10:39;;;;;;;29.70;17.90;;;7.80;99.90;;;;;;5068305;28;20071;-62
2024/02/12 02:13:06;;;;;;;26.05;16.52;;;7.80;99.90;;;;;;5078599;28;20067;-62
2024/02/12 02:15:35;;;;;;;28.17;18.67;;;7.80;99.90;;;;;;5096328;28;20044;-62
2024/02/12 02:18:03;;;;;;;25.77;16.80;;;7.80;99.90;;;;;;5094815;28;20043;-62
2024/02/12 02:20:30;;;;;;;25.60;16.40;;;7.80;99.90;;;;;;5077844;28;20048;-62
2024/02/12 02:22:56;;;;;;;25.38;16.75;;;7.80;99.90;;;;;;5079391;28;20066;-62
2024/02/12 02:25:22;;;;;;;24.02;16.85;;;7.80;99.90;;;;;;5076354;28;20482;-62
2024/02/12 02:27:48;;;;;;;27.45;16.50;;;7.80;99.90;;;;;;5077820;28;20257;-62
2024/02/12 02:30:13;;;;;;;24.60;17.27;;;7.80;99.90;;;;;;5075689;28;20913;-62
2024/02/12 02:32:42;;;;;;;26.40;17.92;;;7.80;99.90;;;;;;5095148;28;20093;-62
2024/02/12 02:35:08;;;;;;;27.45;17.63;;;7.80;99.90;;;;;;5093940;28;20583;-62
2024/02/12 02:37:35;;;;;;;29.40;17.67;;;7.70;99.90;;;;;;5073717;28;20079;-62
2024/02/12 02:40:03;;;;;;;27.30;17.60;;;7.80;99.90;;;;;;5074906;28;20052;-62
2024/02/12 02:42:29;;;;;;;28.60;18.35;;;7.80;99.90;;;;;;5075660;28;20032;-62
2024/02/12 02:44:54;;;;;;;30.65;19.30;;;7.80;99.90;;;;;;5079585;28;20088;-62
2024/02/12 02:47:20;;;;;;;31.70;18.70;;;7.80;99.90;;;;;;5072854;28;20989;-62
2024/02/12 02:49:48;;;;;;;29.45;18.58;;;7.80;99.90;;;;;;5077589;28;20572;-62
2024/02/12 02:52:14;;;;;;;26.52;17.58;;;7.80;99.90;;;;;;5091521;28;20036;-62
2024/02/12 02:54:44;;;;;;;28.85;19.23;;;7.80;99.90;;;;;;5077494;28;20547;-62
2024/02/12 02:57:10;;;;;;;31.40;19.48;;;7.80;99.90;;;;;;5076666;28;20032;-62
2024/02/12 02:59:36;;;;;;;33.22;19.38;;;7.80;99.90;;;;;;5073638;28;20039;-62
2024/02/12 03:02:03;;;;;;;31.88;18.60;;;7.80;99.90;;;;;;5077519;28;20032;-62
2024/02/12 03:04:29;;;;;;;33.88;18.67;;;7.70;99.90;;;;;;5055861;28;20048;-62
2024/02/12 03:06:54;;;;;;;31.13;18.40;;;7.80;99.90;;;;;;5073593;28;20093;-62
2024/02/12 03:09:21;;;;;;;31.70;17.95;;;7.80;99.90;;;;;;5107599;27;20518;-62
2024/02/12 03:11:51;;;;;;;36.58;19.17;;;7.70;99.90;;;;;;5097229;28;20040;-62
2024/02/12 03:14:16;;;;;;;31.30;18.58;;;7.70;99.90;;;;;;5076629;28;20083;-62
2024/02/12 03:16:42;;;;;;;32.97;19.45;;;7.70;99.90;;;;;;5093077;28;20075;-62
2024/02/12 03:19:08;;;;;;;31.98;19.27;;;7.70;99.90;;;;;;5105074;27;20047;-62
2024/02/12 03:21:34;;;;;;;28.33;18.45;;;7.80;99.90;;;;;;5072881;28;20036;-62
2024/02/12 03:24:00;;;;;;;29.45;18.80;;;7.80;99.90;;;;;;5105376;27;20130;-62
2024/02/12 03:26:25;;;;;;;29.27;19.60;;;7.70;99.90;;;;;;5096789;28;20158;-62
2024/02/12 03:28:51;;;;;;;29.48;18.33;;;7.70;99.90;;;;;;5076974;28;20774;-62
2024/02/12 03:31:17;;;;;;;28.90;18.08;;;7.70;99.90;;;;;;5075995;28;20090;-63
2024/02/12 03:33:42;;;;;;;28.00;17.33;;;7.70;99.90;;;;;;5088868;28;20122;-62
2024/02/12 03:36:08;;;;;;;28.67;18.67;;;7.70;99.90;;;;;;5073836;28;20401;-62
2024/02/12 03:38:34;;;;;;;34.40;19.23;;;7.70;99.90;;;;;;5059804;28;20059;-62
2024/02/12 03:41:00;;;;;;;26.92;18.13;;;7.70;99.90;;;;;;5078515;28;20031;-62
2024/02/12 03:43:27;;;;;;;30.40;18.45;;;7.70;99.90;;;;;;5094734;28;20078;-62
2024/02/12 03:45:56;;;;;;;30.88;19.02;;;7.70;99.90;;;;;;5096048;28;20032;-63
2024/02/12 04:02:10;;;;;;;25.00;16.23;;;7.70;99.90;;;;;;5091336;28;20040;-62
2024/02/12 04:04:38;;;;;;;29.85;18.30;;;7.60;99.90;;;;;;5076741;28;20043;-62
2024/02/12 04:07:04;;;;;;;29.92;17.33;;;7.60;99.90;;;;;;5092714;28;20402;-62
2024/02/12 04:09:29;;;;;;;28.42;17.48;;;7.60;99.90;;;;;;5076812;28;20080;-62
2024/02/12 04:11:55;;;;;;;28.42;16.50;;;7.60;99.90;;;;;;5076582;28;20036;-62
2024/02/12 04:14:21;;;;;;;24.27;16.55;;;7.60;99.90;;;;;;5094509;28;20040;-62
2024/02/12 04:16:51;;;;;;;27.38;16.80;;;7.60;99.90;;;;;;5097945;28;20036;-62
2024/02/12 04:19:22;;;;;;;28.50;18.20;;;7.60;99.90;;;;;;5075240;28;20115;-62
2024/02/12 04:21:52;;;;;;;24.55;16.42;;;7.60;99.90;;;;;;5096613;28;20550;-62
2024/02/12 04:24:21;;;;;;;29.48;17.83;;;7.60;99.90;;;;;;5109733;27;20095;-62
2024/02/12 04:26:46;;;;;;;28.05;17.45;;;7.60;99.90;;;;;;5112769;27;20486;-62
2024/02/12 04:29:14;;;;;;;22.92;15.88;;;7.60;99.90;;;;;;5097282;28;20067;-62
2024/02/12 04:31:40;;;;;;;27.75;17.02;;;7.60;99.90;;;;;;5081518;28;20068;-62
2024/02/12 04:34:07;;;;;;;23.05;16.23;;;7.60;99.90;;;;;;5098180;28;20044;-62
2024/02/12 04:36:42;;;;;;;23.83;15.98;;;7.60;99.90;;;;;;5082539;28;20043;-62
2024/02/12 04:39:17;;;;;;;25.35;16.25;;;7.90;99.90;;;;;;5097235;28;20636;-62
2024/02/12 04:41:44;;;;;;;24.88;17.08;;;7.60;99.90;;;;;;5098078;28;20104;-62
2024/02/12 04:44:10;;;;;;;22.75;15.50;;;7.60;99.90;;;;;;5108666;27;20048;-62
2024/02/12 04:46:38;;;;;;;23.23;15.50;;;7.60;99.90;;;;;;5081186;28;20043;-62
2024/02/12 04:49:04;;;;;;;23.55;15.63;;;7.60;99.90;;;;;;5081008;28;20059;-62
2024/02/12 04:51:31;;;;;;;24.42;16.83;;;7.60;99.90;;;;;;5107019;27;20494;-62
2024/02/12 04:54:00;;;;;;;24.42;16.08;;;7.60;99.90;;;;;;5096065;28;20043;-62
2024/02/12 04:56:26;;;;;;;26.75;16.63;;;7.60;99.90;;;;;;5094566;28;20450;-62
2024/02/12 04:58:53;;;;;;;22.85;15.45;;;7.60;99.90;;;;;;5077605;28;20044;-62
2024/02/12 05:01:19;;;;;;;24.38;16.20;;;7.60;99.90;;;;;;5105366;27;20082;-62
2024/02/12 05:03:46;;;;;;;22.98;16.50;;;7.50;99.90;;;;;;5092750;28;20055;-62
2024/02/12 05:06:16;;;;;;;26.35;16.65;;;7.50;99.90;;;;;;5082562;28;20047;-62
2024/02/12 05:08:43;;;;;;;26.80;15.63;;;7.50;99.90;;;;;;5096744;28;20043;-62
2024/02/12 05:11:09;;;;;;;25.63;16.42;;;7.50;99.90;;;;;;5097960;28;20119;-62
2024/02/12 05:13:35;;;;;;;24.80;16.80;;;7.40;99.90;;;;;;5095015;28;20174;-62
2024/02/12 05:16:02;;;;;;;28.00;18.20;;;7.40;99.90;;;;;;5097499;28;20159;-62
2024/02/12 05:23:57;;;;;;;26.38;17.85;;;7.40;99.90;;;;;;5094809;28;20044;-62
2024/02/12 05:26:23;;;;;;;28.52;17.35;;;7.40;99.90;;;;;;5090056;28;20068;-62
2024/02/12 05:28:50;;;;;;;30.90;18.08;;;7.40;99.90;;;;;;5093720;28;20206;-62
2024/02/12 05:31:15;;;;;;;32.05;18.98;;;7.40;99.90;;;;;;5094772;28;20093;-62
2024/02/12 05:33:41;;;;;;;32.83;19.23;;;7.30;99.90;;;;;;5078620;28;20083;-62
2024/02/12 05:36:09;;;;;;;31.60;18.42;;;7.30;99.90;;;;;;5094878;28;20056;-62
2024/02/12 05:38:38;;;;;;;29.80;20.02;;;7.30;99.90;;;;;;5093156;28;20051;-62
2024/02/12 05:41:04;;;;;;;30.02;18.20;;;7.20;99.90;;;;;;5074251;28;20539;-62
2024/02/12 05:43:29;;;;;;;30.70;18.10;;;7.20;99.90;;;;;;5094731;28;20059;-62
2024/02/12 05:45:55;;;;;;;35.42;17.50;;;7.10;99.90;;;;;;5073184;28;20043;-62
2024/02/12 05:48:21;;;;;;;31.83;17.95;;;7.00;99.90;;;;;;5073222;28;20047;-62
2024/02/12 05:50:48;;;;;;;27.67;17.40;;;7.00;99.90;;;;;;5057561;28;20444;-62
2024/02/12 05:53:15;;;;;;;27.50;17.88;;;7.00;99.90;;;;;;5069639;28;20050;-62
2024/02/12 05:55:40;;;;;;;28.35;17.38;;;7.00;99.90;;;;;;5090266;28;20047;-62
2024/02/12 05:58:09;;;;;;;37.88;17.67;;;7.00;99.90;;;;;;5089186;28;20052;-62
2024/02/12 06:00:36;;;;;;;31.15;18.98;;;6.90;99.90;;;;;;5087157;28;20036;-62
2024/02/12 06:03:01;;;;;;;34.80;19.92;;;7.00;99.90;;;;;;5074904;28;20056;-62
2024/02/12 06:05:27;;;;;;;32.83;19.35;;;6.90;99.90;;;;;;5077727;28;20042;-62
2024/02/12 06:07:52;;;;;;;33.13;18.53;;;7.00;99.90;;;;;;5037226;28;1136176;-62
2024/02/12 06:10:19;;;;;;;32.20;20.10;;;7.00;99.90;;;;;;5094828;28;20044;-62
2024/02/12 06:12:44;;;;;;;34.78;19.85;;;7.00;99.90;;;;;;5094694;28;20040;-62
2024/02/12 06:15:10;;;;;;;41.35;20.98;;;7.00;99.90;;;;;;5097143;28;20040;-62
2024/02/12 06:17:36;;;;;;;37.22;21.80;;;7.00;99.90;;;;;;5091497;28;20177;-62
2024/02/12 06:20:05;;;;;;;35.60;20.25;;;7.00;99.90;;;;;;5092564;28;20071;-62
2024/02/12 06:22:32;;;;;;;41.53;22.55;;;7.00;99.90;;;;;;5080242;28;20036;-62
2024/02/12 06:24:57;;;;;;;38.42;21.38;;;7.00;99.90;;;;;;5078894;28;20036;-62
2024/02/12 06:27:23;;;;;;;42.13;22.77;;;7.00;99.90;;;;;;5094363;28;20043;-62
2024/02/12 06:29:49;;;;;;;39.83;21.58;;;7.00;99.90;;;;;;5079430;28;20032;-62
2024/02/12 06:32:15;;;;;;;39.47;21.73;;;7.10;99.90;;;;;;5094808;28;20077;-62
2024/02/12 06:34:47;;;;;;;41.90;23.38;;;7.00;99.90;;;;;;5094761;28;20409;-62
2024/02/12 06:37:13;;;;;;;43.42;22.80;;;7.00;99.90;;;;;;5093925;28;20105;-62
2024/02/12 06:39:39;;;;;;;41.22;23.70;;;7.00;99.90;;;;;;5059342;28;20043;-62
2024/02/12 06:42:05;;;;;;;42.65;22.05;;;7.00;99.90;;;;;;5092041;28;20085;-62
2024/02/12 06:44:32;;;;;;;45.80;23.80;;;7.00;99.90;;;;;;5075597;28;20055;-62
2024/02/12 06:46:58;;;;;;;47.88;23.35;;;7.00;99.90;;;;;;5073730;28;20078;-62
2024/02/12 06:49:24;;;;;;;49.03;24.25;;;7.10;99.90;;;;;;5091374;28;20035;-62
2024/02/12 06:51:49;;;;;;;44.80;23.55;;;7.00;99.90;;;;;;5078903;28;20124;-62
2024/02/12 06:54:15;;;;;;;44.45;22.73;;;7.10;99.90;;;;;;5094019;28;20072;-62
2024/02/12 06:56:41;;;;;;;41.78;22.80;;;7.00;99.90;;;;;;5083267;28;20515;-62
2024/02/12 06:59:07;;;;;;;47.92;22.20;;;7.00;99.90;;;;;;5095220;28;20070;-62
2024/02/12 07:01:33;;;;;;;42.33;23.23;;;7.10;99.90;;;;;;5058818;28;20172;-62
2024/02/12 07:04:00;;;;;;;42.50;22.30;;;7.10;99.90;;;;;;5090803;28;20465;-62
2024/02/12 07:06:26;;;;;;;44.53;22.58;;;7.10;99.90;;;;;;5072425;28;20044;-62
2024/02/12 07:08:51;;;;;;;37.83;22.45;;;7.10;99.90;;;;;;5063636;28;20040;-62
2024/02/12 07:11:17;;;;;;;42.15;22.83;;;7.10;99.90;;;;;;5099534;28;20089;-62
2024/02/12 07:13:43;;;;;;;42.58;22.40;;;7.10;99.90;;;;;;5094529;28;20126;-62
2024/02/12 07:16:29;;;;;;;45.88;23.20;;;7.10;99.90;;;;;;5074221;28;20455;-62
2024/02/12 07:18:55;;;;;;;;;;;7.20;99.90;;;;;;5078466;28;20042;-62
2024/02/12 07:21:21;;;;;;;38.30;21.02;;;7.10;99.90;;;;;;5095135;28;19915;-62
2024/02/12 07:23:47;;;;;;;39.83;20.50;;;7.20;99.90;;;;;;5075775;28;20214;-62
2024/02/12 07:26:13;;;;;;;42.80;20.23;;;7.10;99.90;;;;;;5079792;28;20035;-62
2024/02/12 07:28:39;;;;;;;36.42;21.83;;;7.20;99.90;;;;;;5067723;28;20421;-62
2024/02/12 07:31:08;;;;;;;40.13;21.25;;;7.20;99.90;;;;;;5108818;27;20081;-62
2024/02/12 07:33:37;;;;;;;37.65;21.33;;;7.20;99.90;;;;;;5075679;28;20046;-62
2024/02/12 07:36:06;;;;;;;39.00;19.75;;;7.20;99.90;;;;;;5107605;27;20050;-62
2024/02/12 07:38:32;;;;;;;34.80;19.30;;;7.20;99.90;;;;;;5091807;28;20036;-62
2024/02/12 07:40:59;;;;;;;33.47;20.13;;;7.20;99.90;;;;;;5093190;28;20031;-62
2024/02/12 07:43:26;;;;;;;32.35;19.48;;;7.20;99.90;;;;;;5094492;28;20063;-62
2024/02/12 07:45:55;;;;;;;36.88;20.15;;;7.20;99.90;;;;;;5091736;28;20043;-62
2024/02/12 07:48:21;;;;;;;36.20;19.63;;;7.20;99.90;;;;;;5072791;28;20066;-62
2024/02/12 07:50:47;;;;;;;37.03;21.83;;;7.20;99.90;;;;;;5091154;28;20032;-62
2024/02/12 07:53:13;;;;;;;38.38;20.05;;;7.30;99.90;;;;;;5072907;28;20036;-62
2024/02/12 07:55:38;;;;;;;35.70;20.48;;;7.30;99.90;;;;;;5058038;28;20047;-62
2024/02/12 07:58:04;;;;;;;34.65;20.92;;;7.20;99.90;;;;;;5095823;28;20032;-62
2024/02/12 08:00:30;;;;;;;35.28;20.90;;;7.40;99.90;;;;;;5093876;28;20036;-62
2024/02/12 08:02:55;;;;;;;34.00;19.92;;;7.30;99.90;;;;;;5074272;28;20114;-62
2024/02/12 08:05:21;;;;;;;34.38;20.23;;;7.40;99.90;;;;;;5057361;28;20144;-62
2024/02/12 08:07:47;;;;;;;35.42;20.67;;;7.40;99.90;;;;;;5090863;28;20101;-62
2024/02/12 08:10:13;;;;;;;39.22;20.42;;;7.50;99.90;;;;;;5072097;28;20036;-62
2024/02/12 08:12:41;;;;;;;32.63;18.83;;;7.50;99.90;;;;;;5095129;28;20058;-62
2024/02/12 08:15:08;;;;;;;36.95;19.25;;;7.60;99.90;;;;;;5075914;28;20097;-62
2024/02/12 08:17:34;;;;;;;30.33;19.00;;;7.60;99.90;;;;;;5075931;28;20092;-62
2024/02/12 08:20:04;;;;;;;32.05;19.27;;;7.70;99.90;;;;;;5104674;28;20040;-62
2024/02/12 08:22:29;;;;;;;41.55;20.35;;;7.90;99.90;;;;;;5104537;28;20044;-62
2024/02/12 08:24:55;;;;;;;35.05;19.27;;;7.80;99.90;;;;;;5090376;28;20462;-62
2024/02/12 08:27:20;;;;;;;29.83;19.60;;;8.00;99.90;;;;;;5107865;28;20051;-62
2024/02/12 08:29:47;;;;;;;32.22;18.58;;;8.10;99.90;;;;;;5071102;28;20063;-62
2024/02/12 08:32:13;;;;;;;29.65;18.58;;;8.20;99.90;;;;;;5090083;28;20097;-62
2024/02/12 08:34:42;;;;;;;28.10;17.60;;;8.30;99.90;;;;;;5094946;28;20045;-62
2024/02/12 08:37:08;;;;;;;29.90;17.45;;;8.40;99.90;;;;;;5091710;28;20043;-62
2024/02/12 08:39:34;;;;;;;30.58;17.05;;;8.40;99.90;;;;;;5092616;28;20539;-62
2024/02/12 08:42:00;;;;;;;26.20;16.25;;;8.40;99.90;;;;;;5098653;28;20032;-62
2024/02/12 08:44:26;;;;;;;30.55;17.02;;;8.50;99.90;;;;;;5089751;28;20039;-62
2024/02/12 08:46:52;;;;;;;24.08;15.98;;;8.50;99.90;;;;;;5071207;28;20047;-62
2024/02/12 08:49:18;;;;;;;26.25;15.93;;;8.50;99.90;;;;;;5094967;28;20478;-62
2024/02/12 08:51:44;;;;;;;25.15;15.85;;;8.50;99.90;;;;;;5076820;28;20088;-62
2024/02/12 08:54:10;;;;;;;25.02;16.40;;;8.60;99.90;;;;;;5077446;28;20040;-62
2024/02/12 08:56:39;;;;;;;23.33;15.85;;;8.60;99.90;;;;;;5091037;28;20038;-62
2024/02/12 08:59:06;;;;;;;23.48;15.52;;;8.60;99.90;;;;;;5092742;28;20127;-62
2024/02/12 09:01:32;;;;;;;26.35;15.73;;;8.60;99.90;;;;;;5071437;28;20077;-62
2024/02/12 09:03:58;;;;;;;25.30;16.30;;;8.60;99.90;;;;;;5081026;28;20070;-62
2024/02/12 09:06:23;;;;;;;24.90;15.73;;;8.60;99.90;;;;;;5097661;28;20067;-62
2024/02/12 09:08:49;;;;;;;27.17;16.88;;;8.70;99.90;;;;;;5077246;28;20811;-62
2024/02/12 09:11:16;;;;;;;23.38;15.40;;;8.70;99.90;;;;;;5100318;28;20168;-62
2024/02/12 09:13:46;;;;;;;23.27;15.13;;;8.70;99.90;;;;;;5082466;28;20383;-62
2024/02/12 09:16:13;;;;;;;24.15;15.45;;;8.80;99.90;;;;;;5094417;28;20099;-62
2024/02/12 09:18:39;;;;;;;25.92;15.68;;;8.80;99.90;;;;;;5095013;28;20052;-62
2024/02/12 09:21:05;;;;;;;25.85;14.20;;;9.10;99.90;;;;;;5081002;28;20080;-62
2024/02/12 09:23:31;;;;;;;19.00;13.90;;;8.70;99.90;;;;;;5082020;28;20036;-62
2024/02/12 09:25:56;;;;;;;19.45;13.75;;;8.70;99.90;;;;;;5078548;28;20051;-62
2024/02/12 09:28:27;;;;;;;23.02;13.98;;;8.70;99.90;;;;;;5073373;28;20052;-62
2024/02/12 09:30:54;;;;;;;24.23;13.98;;;8.70;99.90;;;;;;5098571;28;20453;-62
2024/02/12 09:33:20;;;;;;;16.17;12.60;;;8.70;99.90;;;;;;5096822;28;20166;-62
2024/02/12 09:35:46;;;;;;;20.58;13.80;;;8.80;99.90;;;;;;5097759;28;20148;-62
2024/02/12 09:38:14;;;;;;;24.90;12.95;;;8.90;99.90;;;;;;5077526;28;20036;-62
2024/02/12 09:40:42;;;;;;;21.60;13.07;;;9.00;99.90;;;;;;5095361;28;20393;-62
2024/02/12 09:43:12;;;;;;;17.35;10.88;;;9.10;99.90;;;;;;5092627;28;20032;-62
2024/02/12 09:45:43;;;;;;;17.70;11.35;;;9.20;99.90;;;;;;5077266;28;20134;-62
2024/02/12 09:48:12;;;;;;;16.67;11.38;;;9.00;99.90;;;;;;5078783;28;21333;-62
2024/02/12 09:50:48;;;;;;;17.38;11.88;;;9.10;99.90;;;;;;5089401;28;20057;-62
2024/02/12 09:53:21;;;;;;;23.65;11.32;;;9.10;99.90;;;;;;5094414;28;20058;-62
2024/02/12 09:55:47;;;;;;;15.30;10.73;;;9.20;99.90;;;;;;5096096;28;20039;-62
2024/02/12 09:58:15;;;;;;;17.52;11.02;;;9.30;99.90;;;;;;5104579;27;20052;-62
2024/02/12 10:00:43;;;;;;;15.23;10.20;;;9.40;99.90;;;;;;5077775;28;20118;-62
2024/02/12 10:03:12;;;;;;;17.83;10.48;;;9.50;99.90;;;;;;5080248;28;20097;-62
2024/02/12 10:05:41;;;;;;;18.77;9.70;;;9.50;99.90;;;;;;5092258;28;20038;-62
2024/02/12 10:08:27;;;;;;;18.98;9.77;;;9.50;99.90;;;;;;5093819;28;20119;-62
2024/02/12 10:10:53;;;;;;;15.15;8.85;;;9.60;99.90;;;;;;5079494;28;20052;-62
2024/02/12 10:13:20;;;;;;;13.93;10.05;;;9.60;99.90;;;;;;5074662;28;20078;-62
2024/02/12 10:15:46;;;;;;;14.13;7.88;;;9.60;99.90;;;;;;5093025;28;20122;-62
2024/02/12 10:18:15;;;;;;;15.00;8.70;;;9.50;99.90;;;;;;5078332;28;20044;-62
2024/02/12 10:20:45;;;;;;;14.40;9.38;;;9.50;99.90;;;;;;5092674;28;20053;-62
2024/02/12 10:23:15;;;;;;;14.90;9.85;;;9.50;99.90;;;;;;5085006;28;20093;-62
2024/02/12 10:25:45;;;;;;;15.43;8.90;;;9.50;99.90;;;;;;5092733;28;20028;-62
2024/02/12 10:28:19;;;;;;;14.73;8.88;;;9.50;99.90;;;;;;5074081;28;20052;-62
2024/02/12 10:30:46;;;;;;;15.52;9.70;;;9.50;99.90;;;;;;5060818;28;20474;-62
2024/02/12 10:33:13;;;;;;;14.82;8.07;;;9.50;99.90;;;;;;5079216;28;20044;-62
2024/02/12 10:35:40;;;;;;;16.13;7.80;;;9.50;99.90;;;;;;5074285;28;20043;-62
2024/02/12 10:38:06;;;;;;;13.68;8.23;;;9.40;99.90;;;;;;5089766;27;20390;-62
2024/02/12 10:40:39;;;;;;;12.43;7.63;;;9.50;99.90;;;;;;5076280;28;20469;-62
2024/02/12 10:43:06;;;;;;;13.57;7.20;;;9.50;99.90;;;;;;5061628;28;20482;-62
2024/02/12 10:45:32;;;;;;;15.27;7.40;;;9.50;99.90;;;;;;5059235;28;20044;-62
2024/02/12 10:47:58;;;;;;;12.93;7.07;;;9.60;99.90;;;;;;5111349;27;20130;-62
2024/02/12 10:50:26;;;;;;;10.30;6.35;;;9.60;99.90;;;;;;5079108;28;20117;-62
2024/02/12 10:52:53;;;;;;;8.70;5.72;;;9.60;99.90;;;;;;5091826;28;20040;-62
2024/02/12 10:55:19;;;;;;;9.18;5.70;;;9.60;99.90;;;;;;5106552;27;20051;-62
2024/02/12 10:57:46;;;;;;;13.02;6.18;;;9.70;99.90;;;;;;5105971;27;20036;-62
2024/02/12 11:00:23;;;;;;;11.80;6.25;;;9.60;99.90;;;;;;5072490;28;20044;-62
2024/02/12 11:02:50;;;;;;;11.68;6.90;;;9.80;99.90;;;;;;5075819;28;20110;-62
2024/02/12 11:05:20;;;;;;;9.95;6.15;;;9.80;99.90;;;;;;5076784;28;20035;-62
2024/02/12 11:07:47;;;;;;;9.00;5.50;;;9.80;99.90;;;;;;5108856;27;20048;-62
2024/02/12 11:10:18;;;;;;;11.75;6.20;;;9.80;99.90;;;;;;5093321;28;20039;-62
2024/02/12 11:12:48;;;;;;;10.15;5.75;;;9.90;99.90;;;;;;5093019;28;20037;-62
2024/02/12 11:15:24;;;;;;;13.57;7.05;;;9.80;99.90;;;;;;5107934;27;20044;-62
2024/02/12 11:17:50;;;;;;;9.50;5.93;;;9.80;99.90;;;;;;5074198;28;20031;-62
2024/02/12 11:20:21;;;;;;;8.40;5.22;;;9.90;99.90;;;;;;5071750;28;20039;-62
2024/02/12 11:22:48;;;;;;;7.97;4.15;;;10.00;99.90;;;;;;5089938;28;20028;-62
2024/02/12 11:25:20;;;;;;;12.73;4.03;;;10.00;99.90;;;;;;5088508;28;20032;-62
2024/02/12 11:27:57;;;;;;;6.32;3.92;;;9.90;99.90;;;;;;5105519;27;20075;-62
2024/02/12 11:30:22;;;;;;;12.88;4.00;;;9.90;99.90;;;;;;5077976;28;20074;-62
2024/02/12 11:32:48;;;;;;;6.55;3.47;;;9.90;99.90;;;;;;5093870;28;20478;-62
2024/02/12 11:35:18;;;;;;;7.45;2.78;;;9.90;99.90;;;;;;5077994;28;21457;-62
2024/02/12 11:37:55;;;;;;;6.38;3.15;;;9.90;99.90;;;;;;5095796;28;20085;-62
2024/02/12 11:40:21;;;;;;;9.27;2.70;;;10.00;99.90;;;;;;5063058;28;20044;-63
2024/02/12 11:42:51;;;;;;;12.10;3.17;;;9.90;99.90;;;;;;5076987;28;20040;-62
2024/02/12 11:45:18;;;;;;;5.97;2.45;;;9.90;99.90;;;;;;5092173;28;20466;-62
2024/02/12 11:47:46;;;;;;;8.23;2.60;;;9.90;99.90;;;;;;5074999;28;20043;-62
2024/02/12 11:50:25;;;;;;;9.65;2.33;;;9.90;99.90;;;;;;5077053;28;20043;-62
2024/02/12 11:52:57;;;;;;;7.35;2.13;;;10.00;99.90;;;;;;5090402;28;20501;-62
2024/02/12 11:55:26;;;;;;;4.40;1.98;;;10.00;99.90;;;;;;5075760;28;20040;-62
2024/02/12 11:57:52;;;;;;;6.28;2.40;;;10.10;99.90;;;;;;5071654;28;20044;-62
2024/02/12 12:00:21;;;;;;;7.40;2.40;;;10.10;99.90;;;;;;5062662;28;20046;-62
2024/02/12 12:02:52;;;;;;;8.77;2.60;;;10.00;99.90;;;;;;5106581;27;20059;-62
2024/02/12 12:05:24;;;;;;;9.05;2.88;;;10.00;99.90;;;;;;5098095;28;20060;-62
2024/02/12 12:07:55;;;;;;;4.97;2.30;;;10.00;99.90;;;;;;5091451;28;20390;-62
2024/02/12 12:10:22;;;;;;;11.95;3.80;;;10.10;99.90;;;;;;5090645;28;20036;-62
2024/02/12 12:12:48;;;;;;;10.07;3.35;;;10.00;99.90;;;;;;5090764;28;20115;-62
2024/02/12 12:15:14;;;;;;;8.43;3.42;;;10.10;99.90;;;;;;5072943;28;20039;-62
2024/02/12 12:17:41;;;;;;;8.98;2.42;;;10.10;99.90;;;;;;5074004;28;20039;-62
2024/02/12 12:20:12;;;;;;;11.30;3.55;;;10.10;99.90;;;;;;5074130;28;20126;-62
2024/02/12 12:22:40;;;;;;;7.18;2.30;;;10.30;99.90;;;;;;5073579;28;20059;-62
2024/02/12 12:25:12;;;;;;;7.13;2.33;;;10.10;99.90;;;;;;5074227;28;20051;-62
2024/02/12 12:27:39;;;;;;;9.27;2.70;;;10.20;99.90;;;;;;5092657;28;20042;-62
2024/02/12 12:30:15;;;;;;;10.23;3.15;;;10.20;99.90;;;;;;5069541;28;20044;-62
2024/02/12 12:32:41;;;;;;;8.23;2.28;;;10.20;99.90;;;;;;5086970;28;20152;-62
2024/02/12 12:35:07;;;;;;;9.98;2.30;;;10.20;99.90;;;;;;5074096;28;20040;-62
2024/02/12 12:37:34;;;;;;;8.77;2.10;;;10.20;99.90;;;;;;5100265;28;20089;-62
2024/02/12 12:40:00;;;;;;;6.18;1.85;;;10.20;99.90;;;;;;5060679;28;20083;-62
2024/02/12 12:42:25;;;;;;;4.95;2.00;;;10.30;99.90;;;;;;5079115;28;20063;-62
2024/02/12 12:44:51;;;;;;;6.05;2.17;;;10.30;99.90;;;;;;5097966;28;20035;-62
2024/02/12 12:47:18;;;;;;;10.10;2.38;;;10.40;99.90;;;;;;5078180;28;20075;-62
2024/02/12 12:49:44;;;;;;;8.98;3.00;;;10.40;99.90;;;;;;5080491;28;20071;-62
2024/02/12 12:52:10;;;;;;;9.68;3.22;;;10.50;99.90;;;;;;5097714;28;20426;-62
2024/02/12 12:54:38;;;;;;;7.93;2.65;;;10.50;99.90;;;;;;5097437;28;20128;-62
2024/02/12 12:57:04;;;;;;;7.13;2.35;;;10.60;99.90;;;;;;5098338;28;20452;-62
2024/02/12 12:59:30;;;;;;;4.28;1.60;;;10.60;99.90;;;;;;5081449;28;20062;-62